sensor_id;sensor_type;location;lat;lon;timestamp;P1;durP1;ratioP1;P2;durP2;ratioP2
42834;SDS011;29335;50.526;30.458;2022-08-30T00:00:40;15.82;;;13.55;;
42834;SDS011;29335;50.526;30.458;2022-08-30T00:03:23;14.20;;;12.68;;
42834;SDS011;29335;50.526;30.458;2022-08-30T00:05:50;18.00;;;12.98;;
42834;SDS011;29335;50.526;30.458;2022-08-30T00:08:17;16.88;;;12.77;;
42834;SDS011;29335;50.526;30.458;2022-08-30T00:10:42;16.40;;;12.98;;
42834;SDS011;29335;50.526;30.458;2022-08-30T00:13:10;14.90;;;13.15;;
42834;SDS011;29335;50.526;30.458;2022-08-30T00:15:37;16.00;;;12.63;;
42834;SDS011;29335;50.526;30.458;2022-08-30T00:18:03;14.82;;;13.25;;
42834;SDS011;29335;50.526;30.458;2022-08-30T00:20:30;15.27;;;13.40;;
42834;SDS011;29335;50.526;30.458;2022-08-30T00:22:57;16.13;;;13.20;;
42834;SDS011;29335;50.526;30.458;2022-08-30T00:25:23;19.38;;;13.68;;
42834;SDS011;29335;50.526;30.458;2022-08-30T00:27:49;16.50;;;13.27;;
42834;SDS011;29335;50.526;30.458;2022-08-30T00:30:15;15.30;;;13.43;;
42834;SDS011;29335;50.526;30.458;2022-08-30T00:32:43;15.02;;;12.77;;
42834;SDS011;29335;50.526;30.458;2022-08-30T00:35:09;14.65;;;12.77;;
42834;SDS011;29335;50.526;30.458;2022-08-30T00:37:37;17.75;;;13.18;;
42834;SDS011;29335;50.526;30.458;2022-08-30T00:40:03;14.85;;;13.00;;
42834;SDS011;29335;50.526;30.458;2022-08-30T00:42:30;17.98;;;13.50;;
42834;SDS011;29335;50.526;30.458;2022-08-30T00:44:57;15.70;;;13.57;;
42834;SDS011;29335;50.526;30.458;2022-08-30T00:47:23;14.75;;;13.20;;
42834;SDS011;29335;50.526;30.458;2022-08-30T00:49:49;15.25;;;13.65;;
42834;SDS011;29335;50.526;30.458;2022-08-30T00:52:17;17.63;;;13.50;;
42834;SDS011;29335;50.526;30.458;2022-08-30T00:54:47;17.35;;;13.65;;
42834;SDS011;29335;50.526;30.458;2022-08-30T00:57:13;15.52;;;13.85;;
42834;SDS011;29335;50.526;30.458;2022-08-30T00:59:40;16.95;;;13.90;;
42834;SDS011;29335;50.526;30.458;2022-08-30T01:02:09;16.75;;;12.82;;
42834;SDS011;29335;50.526;30.458;2022-08-30T01:04:36;15.95;;;13.90;;
42834;SDS011;29335;50.526;30.458;2022-08-30T01:07:04;15.95;;;14.30;;
42834;SDS011;29335;50.526;30.458;2022-08-30T01:09:32;16.27;;;13.73;;
42834;SDS011;29335;50.526;30.458;2022-08-30T01:11:58;15.45;;;13.85;;
42834;SDS011;29335;50.526;30.458;2022-08-30T01:14:24;17.33;;;14.00;;
42834;SDS011;29335;50.526;30.458;2022-08-30T01:16:51;15.07;;;13.48;;
42834;SDS011;29335;50.526;30.458;2022-08-30T01:25:06;16.38;;;12.93;;
42834;SDS011;29335;50.526;30.458;2022-08-30T01:27:33;16.58;;;13.85;;
42834;SDS011;29335;50.526;30.458;2022-08-30T01:30:06;15.50;;;13.63;;
42834;SDS011;29335;50.526;30.458;2022-08-30T01:32:37;15.32;;;13.75;;
42834;SDS011;29335;50.526;30.458;2022-08-30T01:35:07;15.93;;;14.23;;
42834;SDS011;29335;50.526;30.458;2022-08-30T01:37:35;14.77;;;13.25;;
42834;SDS011;29335;50.526;30.458;2022-08-30T01:40:02;14.85;;;13.25;;
42834;SDS011;29335;50.526;30.458;2022-08-30T01:42:29;15.88;;;13.57;;
42834;SDS011;29335;50.526;30.458;2022-08-30T01:44:55;18.05;;;14.02;;
42834;SDS011;29335;50.526;30.458;2022-08-30T01:47:21;15.82;;;14.10;;
42834;SDS011;29335;50.526;30.458;2022-08-30T01:49:46;15.80;;;14.20;;
42834;SDS011;29335;50.526;30.458;2022-08-30T01:52:12;19.40;;;13.80;;
42834;SDS011;29335;50.526;30.458;2022-08-30T01:54:40;15.90;;;14.20;;
42834;SDS011;29335;50.526;30.458;2022-08-30T01:57:07;17.13;;;14.68;;
42834;SDS011;29335;50.526;30.458;2022-08-30T01:59:35;16.35;;;14.15;;
42834;SDS011;29335;50.526;30.458;2022-08-30T02:02:02;17.13;;;13.65;;
42834;SDS011;29335;50.526;30.458;2022-08-30T02:04:28;17.38;;;14.63;;
42834;SDS011;29335;50.526;30.458;2022-08-30T02:06:54;15.98;;;14.02;;
42834;SDS011;29335;50.526;30.458;2022-08-30T02:09:19;15.65;;;14.05;;
42834;SDS011;29335;50.526;30.458;2022-08-30T02:11:45;14.90;;;13.43;;
42834;SDS011;29335;50.526;30.458;2022-08-30T02:14:12;14.95;;;13.45;;
42834;SDS011;29335;50.526;30.458;2022-08-30T02:16:38;17.77;;;14.38;;
42834;SDS011;29335;50.526;30.458;2022-08-30T02:19:04;16.40;;;14.63;;
42834;SDS011;29335;50.526;30.458;2022-08-30T02:21:30;15.85;;;14.18;;
42834;SDS011;29335;50.526;30.458;2022-08-30T02:23:57;16.00;;;14.45;;
42834;SDS011;29335;50.526;30.458;2022-08-30T02:26:23;18.23;;;15.00;;
42834;SDS011;29335;50.526;30.458;2022-08-30T02:28:49;18.65;;;14.50;;
42834;SDS011;29335;50.526;30.458;2022-08-30T02:31:16;16.40;;;14.65;;
42834;SDS011;29335;50.526;30.458;2022-08-30T02:33:43;16.90;;;15.10;;
42834;SDS011;29335;50.526;30.458;2022-08-30T02:36:09;15.90;;;14.20;;
42834;SDS011;29335;50.526;30.458;2022-08-30T02:38:35;17.80;;;15.30;;
42834;SDS011;29335;50.526;30.458;2022-08-30T02:41:01;16.73;;;14.93;;
42834;SDS011;29335;50.526;30.458;2022-08-30T02:43:26;16.83;;;15.02;;
42834;SDS011;29335;50.526;30.458;2022-08-30T02:45:52;16.40;;;14.73;;
42834;SDS011;29335;50.526;30.458;2022-08-30T02:48:18;17.35;;;15.65;;
42834;SDS011;29335;50.526;30.458;2022-08-30T02:50:45;17.02;;;14.93;;
42834;SDS011;29335;50.526;30.458;2022-08-30T02:53:14;18.20;;;16.30;;
42834;SDS011;29335;50.526;30.458;2022-08-30T02:55:40;17.77;;;15.88;;
42834;SDS011;29335;50.526;30.458;2022-08-30T02:58:06;18.45;;;15.18;;
42834;SDS011;29335;50.526;30.458;2022-08-30T03:00:32;19.67;;;16.08;;
42834;SDS011;29335;50.526;30.458;2022-08-30T03:02:59;18.70;;;16.80;;
42834;SDS011;29335;50.526;30.458;2022-08-30T03:05:27;18.00;;;16.23;;
42834;SDS011;29335;50.526;30.458;2022-08-30T03:07:54;17.08;;;15.27;;
42834;SDS011;29335;50.526;30.458;2022-08-30T03:10:20;17.48;;;15.63;;
42834;SDS011;29335;50.526;30.458;2022-08-30T03:12:46;17.73;;;15.82;;
42834;SDS011;29335;50.526;30.458;2022-08-30T03:15:13;19.30;;;17.35;;
42834;SDS011;29335;50.526;30.458;2022-08-30T03:17:40;19.02;;;16.92;;
42834;SDS011;29335;50.526;30.458;2022-08-30T03:20:06;19.27;;;17.20;;
42834;SDS011;29335;50.526;30.458;2022-08-30T03:22:33;20.08;;;17.35;;
42834;SDS011;29335;50.526;30.458;2022-08-30T03:24:59;18.48;;;16.67;;
42834;SDS011;29335;50.526;30.458;2022-08-30T03:27:26;19.08;;;17.08;;
42834;SDS011;29335;50.526;30.458;2022-08-30T03:29:53;19.75;;;17.38;;
42834;SDS011;29335;50.526;30.458;2022-08-30T03:32:19;19.33;;;17.58;;
42834;SDS011;29335;50.526;30.458;2022-08-30T03:34:45;20.67;;;18.48;;
42834;SDS011;29335;50.526;30.458;2022-08-30T03:37:11;17.17;;;15.57;;
42834;SDS011;29335;50.526;30.458;2022-08-30T03:39:36;21.77;;;19.67;;
42834;SDS011;29335;50.526;30.458;2022-08-30T03:42:02;21.52;;;19.05;;
42834;SDS011;29335;50.526;30.458;2022-08-30T03:44:28;21.85;;;19.60;;
42834;SDS011;29335;50.526;30.458;2022-08-30T03:46:54;22.02;;;19.77;;
42834;SDS011;29335;50.526;30.458;2022-08-30T03:49:19;22.92;;;20.60;;
42834;SDS011;29335;50.526;30.458;2022-08-30T03:51:45;22.95;;;20.65;;
42834;SDS011;29335;50.526;30.458;2022-08-30T03:54:12;17.30;;;14.32;;
42834;SDS011;29335;50.526;30.458;2022-08-30T03:56:38;24.10;;;21.75;;
42834;SDS011;29335;50.526;30.458;2022-08-30T03:59:04;22.45;;;20.27;;
42834;SDS011;29335;50.526;30.458;2022-08-30T04:01:30;24.02;;;21.60;;
42834;SDS011;29335;50.526;30.458;2022-08-30T04:03:56;22.55;;;20.33;;
42834;SDS011;29335;50.526;30.458;2022-08-30T04:06:22;23.77;;;21.40;;
42834;SDS011;29335;50.526;30.458;2022-08-30T04:08:48;23.08;;;20.75;;
42834;SDS011;29335;50.526;30.458;2022-08-30T04:11:13;22.35;;;20.08;;
42834;SDS011;29335;50.526;30.458;2022-08-30T04:13:40;23.75;;;21.45;;
42834;SDS011;29335;50.526;30.458;2022-08-30T04:16:06;21.25;;;18.83;;
42834;SDS011;29335;50.526;30.458;2022-08-30T04:18:32;22.33;;;20.13;;
42834;SDS011;29335;50.526;30.458;2022-08-30T04:21:00;23.70;;;21.27;;
42834;SDS011;29335;50.526;30.458;2022-08-30T04:23:26;21.80;;;19.35;;
42834;SDS011;29335;50.526;30.458;2022-08-30T04:25:52;21.20;;;19.00;;
42834;SDS011;29335;50.526;30.458;2022-08-30T04:28:19;22.40;;;20.20;;
42834;SDS011;29335;50.526;30.458;2022-08-30T04:30:45;20.90;;;18.67;;
42834;SDS011;29335;50.526;30.458;2022-08-30T04:33:12;19.85;;;17.95;;
42834;SDS011;29335;50.526;30.458;2022-08-30T04:35:41;18.40;;;16.63;;
42834;SDS011;29335;50.526;30.458;2022-08-30T04:38:08;19.70;;;17.60;;
42834;SDS011;29335;50.526;30.458;2022-08-30T04:40:34;18.38;;;16.55;;
42834;SDS011;29335;50.526;30.458;2022-08-30T04:43:00;17.15;;;15.63;;
42834;SDS011;29335;50.526;30.458;2022-08-30T04:45:26;16.60;;;14.93;;
42834;SDS011;29335;50.526;30.458;2022-08-30T04:47:51;17.00;;;15.35;;
42834;SDS011;29335;50.526;30.458;2022-08-30T04:50:18;15.55;;;14.13;;
42834;SDS011;29335;50.526;30.458;2022-08-30T04:52:45;15.60;;;12.88;;
42834;SDS011;29335;50.526;30.458;2022-08-30T04:55:11;15.55;;;14.07;;
42834;SDS011;29335;50.526;30.458;2022-08-30T04:57:37;15.55;;;13.95;;
42834;SDS011;29335;50.526;30.458;2022-08-30T05:00:05;14.80;;;13.40;;
42834;SDS011;29335;50.526;30.458;2022-08-30T05:02:32;15.35;;;13.95;;
42834;SDS011;29335;50.526;30.458;2022-08-30T05:04:58;14.93;;;13.43;;
42834;SDS011;29335;50.526;30.458;2022-08-30T05:07:43;15.05;;;13.65;;
42834;SDS011;29335;50.526;30.458;2022-08-30T05:10:09;15.63;;;14.00;;
42834;SDS011;29335;50.526;30.458;2022-08-30T05:12:34;15.32;;;13.75;;
42834;SDS011;29335;50.526;30.458;2022-08-30T05:15:00;13.63;;;12.32;;
42834;SDS011;29335;50.526;30.458;2022-08-30T05:17:25;13.45;;;12.15;;
42834;SDS011;29335;50.526;30.458;2022-08-30T05:19:51;12.60;;;11.40;;
42834;SDS011;29335;50.526;30.458;2022-08-30T05:22:17;10.68;;;9.63;;
42834;SDS011;29335;50.526;30.458;2022-08-30T05:24:43;10.70;;;9.70;;
42834;SDS011;29335;50.526;30.458;2022-08-30T05:27:09;12.60;;;10.93;;
42834;SDS011;29335;50.526;30.458;2022-08-30T05:29:34;10.82;;;9.73;;
42834;SDS011;29335;50.526;30.458;2022-08-30T05:32:00;10.20;;;9.20;;
42834;SDS011;29335;50.526;30.458;2022-08-30T05:34:28;8.98;;;7.18;;
42834;SDS011;29335;50.526;30.458;2022-08-30T05:36:54;10.75;;;9.13;;
42834;SDS011;29335;50.526;30.458;2022-08-30T05:39:20;12.13;;;9.05;;
42834;SDS011;29335;50.526;30.458;2022-08-30T05:41:46;9.43;;;8.43;;
42834;SDS011;29335;50.526;30.458;2022-08-30T05:44:11;8.57;;;7.60;;
42834;SDS011;29335;50.526;30.458;2022-08-30T05:46:37;9.88;;;8.90;;
42834;SDS011;29335;50.526;30.458;2022-08-30T05:49:04;9.80;;;8.80;;
42834;SDS011;29335;50.526;30.458;2022-08-30T05:51:32;9.70;;;8.70;;
42834;SDS011;29335;50.526;30.458;2022-08-30T05:53:58;10.15;;;9.07;;
42834;SDS011;29335;50.526;30.458;2022-08-30T05:56:25;9.90;;;8.93;;
42834;SDS011;29335;50.526;30.458;2022-08-30T05:58:54;9.25;;;8.35;;
42834;SDS011;29335;50.526;30.458;2022-08-30T06:03:47;9.52;;;8.55;;
42834;SDS011;29335;50.526;30.458;2022-08-30T06:06:13;10.27;;;8.05;;
42834;SDS011;29335;50.526;30.458;2022-08-30T06:08:40;9.18;;;8.27;;
42834;SDS011;29335;50.526;30.458;2022-08-30T06:11:09;5.80;;;4.82;;
42834;SDS011;29335;50.526;30.458;2022-08-30T06:13:36;8.32;;;7.53;;
42834;SDS011;29335;50.526;30.458;2022-08-30T06:16:02;11.05;;;8.23;;
42834;SDS011;29335;50.526;30.458;2022-08-30T06:18:27;7.43;;;6.68;;
42834;SDS011;29335;50.526;30.458;2022-08-30T06:20:53;7.47;;;6.75;;
42834;SDS011;29335;50.526;30.458;2022-08-30T06:23:18;8.27;;;7.38;;
42834;SDS011;29335;50.526;30.458;2022-08-30T06:25:44;9.15;;;7.05;;
42834;SDS011;29335;50.526;30.458;2022-08-30T06:28:09;7.07;;;6.38;;
42834;SDS011;29335;50.526;30.458;2022-08-30T06:30:38;7.13;;;6.15;;
42834;SDS011;29335;50.526;30.458;2022-08-30T06:33:05;6.72;;;5.97;;
42834;SDS011;29335;50.526;30.458;2022-08-30T06:35:31;6.68;;;5.82;;
42834;SDS011;29335;50.526;30.458;2022-08-30T06:37:56;6.68;;;5.38;;
42834;SDS011;29335;50.526;30.458;2022-08-30T06:40:22;3.80;;;2.55;;
42834;SDS011;29335;50.526;30.458;2022-08-30T06:42:49;6.78;;;4.95;;
42834;SDS011;29335;50.526;30.458;2022-08-30T06:45:15;8.10;;;5.63;;
42834;SDS011;29335;50.526;30.458;2022-08-30T06:47:42;7.18;;;5.38;;
42834;SDS011;29335;50.526;30.458;2022-08-30T06:50:09;8.23;;;5.35;;
42834;SDS011;29335;50.526;30.458;2022-08-30T06:52:36;5.57;;;4.75;;
42834;SDS011;29335;50.526;30.458;2022-08-30T06:55:02;8.45;;;4.82;;
42834;SDS011;29335;50.526;30.458;2022-08-30T06:57:28;7.25;;;4.93;;
42834;SDS011;29335;50.526;30.458;2022-08-30T06:59:54;5.07;;;4.57;;
42834;SDS011;29335;50.526;30.458;2022-08-30T07:02:21;5.38;;;4.88;;
42834;SDS011;29335;50.526;30.458;2022-08-30T07:04:47;5.63;;;4.88;;
42834;SDS011;29335;50.526;30.458;2022-08-30T07:07:12;5.28;;;4.50;;
42834;SDS011;29335;50.526;30.458;2022-08-30T07:09:39;4.93;;;4.10;;
42834;SDS011;29335;50.526;30.458;2022-08-30T07:12:07;4.90;;;4.07;;
42834;SDS011;29335;50.526;30.458;2022-08-30T07:14:33;4.78;;;3.67;;
42834;SDS011;29335;50.526;30.458;2022-08-30T07:17:00;4.90;;;4.40;;
42834;SDS011;29335;50.526;30.458;2022-08-30T07:19:25;4.43;;;4.03;;
42834;SDS011;29335;50.526;30.458;2022-08-30T07:21:51;5.68;;;4.20;;
42834;SDS011;29335;50.526;30.458;2022-08-30T07:24:17;4.95;;;3.95;;
42834;SDS011;29335;50.526;30.458;2022-08-30T07:26:46;5.75;;;4.43;;
42834;SDS011;29335;50.526;30.458;2022-08-30T07:29:16;7.30;;;4.50;;
42834;SDS011;29335;50.526;30.458;2022-08-30T07:31:42;6.03;;;4.18;;
42834;SDS011;29335;50.526;30.458;2022-08-30T07:34:08;4.22;;;3.80;;
42834;SDS011;29335;50.526;30.458;2022-08-30T07:36:35;6.07;;;3.80;;
42834;SDS011;29335;50.526;30.458;2022-08-30T07:39:02;9.38;;;4.40;;
42834;SDS011;29335;50.526;30.458;2022-08-30T07:41:31;5.38;;;4.03;;
42834;SDS011;29335;50.526;30.458;2022-08-30T07:43:59;4.90;;;3.83;;
42834;SDS011;29335;50.526;30.458;2022-08-30T07:46:25;5.45;;;3.85;;
42834;SDS011;29335;50.526;30.458;2022-08-30T07:48:52;5.15;;;4.15;;
42834;SDS011;29335;50.526;30.458;2022-08-30T07:51:20;4.60;;;3.13;;
42834;SDS011;29335;50.526;30.458;2022-08-30T07:53:47;6.47;;;3.90;;
42834;SDS011;29335;50.526;30.458;2022-08-30T07:56:13;5.45;;;3.85;;
42834;SDS011;29335;50.526;30.458;2022-08-30T07:58:39;3.78;;;2.30;;
42834;SDS011;29335;50.526;30.458;2022-08-30T08:01:06;5.85;;;3.95;;
42834;SDS011;29335;50.526;30.458;2022-08-30T08:03:33;6.47;;;3.83;;
42834;SDS011;29335;50.526;30.458;2022-08-30T08:06:00;5.53;;;3.85;;
42834;SDS011;29335;50.526;30.458;2022-08-30T08:08:28;6.45;;;3.95;;
42834;SDS011;29335;50.526;30.458;2022-08-30T08:10:54;6.30;;;4.00;;
42834;SDS011;29335;50.526;30.458;2022-08-30T08:13:19;4.93;;;3.35;;
42834;SDS011;29335;50.526;30.458;2022-08-30T08:15:45;4.85;;;3.33;;
42834;SDS011;29335;50.526;30.458;2022-08-30T08:18:11;5.65;;;3.47;;
42834;SDS011;29335;50.526;30.458;2022-08-30T08:20:37;3.20;;;1.70;;
42834;SDS011;29335;50.526;30.458;2022-08-30T08:23:02;4.75;;;3.10;;
42834;SDS011;29335;50.526;30.458;2022-08-30T08:25:28;8.15;;;3.88;;
42834;SDS011;29335;50.526;30.458;2022-08-30T08:27:54;5.20;;;3.60;;
42834;SDS011;29335;50.526;30.458;2022-08-30T08:30:21;5.32;;;3.70;;
42834;SDS011;29335;50.526;30.458;2022-08-30T08:32:47;9.10;;;3.58;;
42834;SDS011;29335;50.526;30.458;2022-08-30T08:35:14;7.28;;;3.95;;
42834;SDS011;29335;50.526;30.458;2022-08-30T08:37:41;4.10;;;3.28;;
42834;SDS011;29335;50.526;30.458;2022-08-30T08:40:08;6.38;;;4.57;;
42834;SDS011;29335;50.526;30.458;2022-08-30T08:45:37;5.63;;;2.90;;
42834;SDS011;29335;50.526;30.458;2022-08-30T08:50:57;3.78;;;2.50;;
42834;SDS011;29335;50.526;30.458;2022-08-30T08:53:42;5.30;;;2.97;;
42834;SDS011;29335;50.526;30.458;2022-08-30T08:56:14;4.43;;;3.08;;
42834;SDS011;29335;50.526;30.458;2022-08-30T08:58:42;7.45;;;2.95;;
42834;SDS011;29335;50.526;30.458;2022-08-30T09:03:40;5.68;;;3.03;;
42834;SDS011;29335;50.526;30.458;2022-08-30T09:06:51;5.18;;;3.35;;
42834;SDS011;29335;50.526;30.458;2022-08-30T09:08:56;3.85;;;2.80;;
42834;SDS011;29335;50.526;30.458;2022-08-30T09:11:23;7.22;;;3.22;;
42834;SDS011;29335;50.526;30.458;2022-08-30T09:13:51;3.63;;;2.90;;
42834;SDS011;29335;50.526;30.458;2022-08-30T09:19:09;6.18;;;2.88;;
42834;SDS011;29335;50.526;30.458;2022-08-30T09:21:35;5.80;;;2.88;;
42834;SDS011;29335;50.526;30.458;2022-08-30T09:24:01;7.72;;;2.72;;
42834;SDS011;29335;50.526;30.458;2022-08-30T09:26:35;5.18;;;2.50;;
42834;SDS011;29335;50.526;30.458;2022-08-30T09:29:02;5.50;;;3.22;;
42834;SDS011;29335;50.526;30.458;2022-08-30T09:31:30;4.13;;;2.80;;
42834;SDS011;29335;50.526;30.458;2022-08-30T09:36:40;6.15;;;3.58;;
42834;SDS011;29335;50.526;30.458;2022-08-30T09:39:13;5.38;;;2.78;;
42834;SDS011;29335;50.526;30.458;2022-08-30T09:41:44;5.25;;;3.42;;
42834;SDS011;29335;50.526;30.458;2022-08-30T09:44:18;9.07;;;3.00;;
42834;SDS011;29335;50.526;30.458;2022-08-30T09:46:50;4.82;;;3.00;;
42834;SDS011;29335;50.526;30.458;2022-08-30T09:49:37;5.90;;;2.83;;
42834;SDS011;29335;50.526;30.458;2022-08-30T09:52:11;5.15;;;2.90;;
42834;SDS011;29335;50.526;30.458;2022-08-30T09:57:23;5.60;;;3.08;;
42834;SDS011;29335;50.526;30.458;2022-08-30T10:10:52;4.95;;;2.92;;
42834;SDS011;29335;50.526;30.458;2022-08-30T10:13:41;5.50;;;2.50;;
42834;SDS011;29335;50.526;30.458;2022-08-30T10:22:10;4.47;;;2.53;;
42834;SDS011;29335;50.526;30.458;2022-08-30T10:24:43;5.00;;;2.70;;
42834;SDS011;29335;50.526;30.458;2022-08-30T10:27:19;5.40;;;2.50;;
42834;SDS011;29335;50.526;30.458;2022-08-30T10:29:54;4.15;;;2.88;;
42834;SDS011;29335;50.526;30.458;2022-08-30T10:32:32;4.20;;;2.70;;
42834;SDS011;29335;50.526;30.458;2022-08-30T10:35:14;3.83;;;1.70;;
42834;SDS011;29335;50.526;30.458;2022-08-30T10:37:44;4.25;;;2.40;;
42834;SDS011;29335;50.526;30.458;2022-08-30T10:40:33;6.43;;;2.63;;
42834;SDS011;29335;50.526;30.458;2022-08-30T10:43:33;5.30;;;2.50;;
42834;SDS011;29335;50.526;30.458;2022-08-30T10:48:53;5.18;;;2.92;;
42834;SDS011;29335;50.526;30.458;2022-08-30T10:51:28;5.53;;;2.53;;
42834;SDS011;29335;50.526;30.458;2022-08-30T10:54:12;4.13;;;2.75;;
42834;SDS011;29335;50.526;30.458;2022-08-30T10:56:48;3.28;;;2.42;;
42834;SDS011;29335;50.526;30.458;2022-08-30T10:59:16;7.53;;;2.60;;
42834;SDS011;29335;50.526;30.458;2022-08-30T11:07:13;6.15;;;2.58;;
42834;SDS011;29335;50.526;30.458;2022-08-30T11:12:33;4.35;;;2.72;;
42834;SDS011;29335;50.526;30.458;2022-08-30T11:15:01;4.57;;;2.70;;
42834;SDS011;29335;50.526;30.458;2022-08-30T11:23:24;3.88;;;2.08;;
42834;SDS011;29335;50.526;30.458;2022-08-30T11:31:31;5.28;;;2.63;;
42834;SDS011;29335;50.526;30.458;2022-08-30T11:33:56;3.97;;;2.60;;
42834;SDS011;29335;50.526;30.458;2022-08-30T11:42:23;3.55;;;1.95;;
42834;SDS011;29335;50.526;30.458;2022-08-30T11:47:47;5.05;;;2.60;;
42834;SDS011;29335;50.526;30.458;2022-08-30T11:56:32;2.90;;;1.80;;
42834;SDS011;29335;50.526;30.458;2022-08-30T11:59:17;4.97;;;2.70;;
42834;SDS011;29335;50.526;30.458;2022-08-30T12:01:44;5.63;;;2.60;;
42834;SDS011;29335;50.526;30.458;2022-08-30T12:04:11;3.08;;;1.42;;
42834;SDS011;29335;50.526;30.458;2022-08-30T12:14:52;4.40;;;2.35;;
42834;SDS011;29335;50.526;30.458;2022-08-30T12:17:22;4.55;;;2.83;;
42834;SDS011;29335;50.526;30.458;2022-08-30T12:20:13;3.87;;;2.47;;
42834;SDS011;29335;50.526;30.458;2022-08-30T12:22:46;5.85;;;2.90;;
42834;SDS011;29335;50.526;30.458;2022-08-30T12:25:26;4.25;;;2.47;;
42834;SDS011;29335;50.526;30.458;2022-08-30T12:28:09;3.53;;;2.65;;
42834;SDS011;29335;50.526;30.458;2022-08-30T12:30:53;4.50;;;2.20;;
42834;SDS011;29335;50.526;30.458;2022-08-30T12:33:26;2.70;;;1.50;;
42834;SDS011;29335;50.526;30.458;2022-08-30T12:36:04;5.55;;;2.85;;
42834;SDS011;29335;50.526;30.458;2022-08-30T12:38:30;3.55;;;2.58;;
42834;SDS011;29335;50.526;30.458;2022-08-30T12:40:57;1.77;;;1.42;;
42834;SDS011;29335;50.526;30.458;2022-08-30T12:43:27;3.70;;;1.80;;
42834;SDS011;29335;50.526;30.458;2022-08-30T12:45:53;4.47;;;2.15;;
42834;SDS011;29335;50.526;30.458;2022-08-30T12:48:21;2.30;;;1.60;;
42834;SDS011;29335;50.526;30.458;2022-08-30T12:50:48;4.53;;;2.58;;
42834;SDS011;29335;50.526;30.458;2022-08-30T12:56:10;4.22;;;2.35;;
42834;SDS011;29335;50.526;30.458;2022-08-30T12:58:45;11.75;;;2.58;;
42834;SDS011;29335;50.526;30.458;2022-08-30T13:03:42;5.80;;;2.97;;
42834;SDS011;29335;50.526;30.458;2022-08-30T13:06:33;4.13;;;2.25;;
42834;SDS011;29335;50.526;30.458;2022-08-30T13:09:06;4.20;;;2.28;;
42834;SDS011;29335;50.526;30.458;2022-08-30T13:11:32;4.75;;;2.28;;
42834;SDS011;29335;50.526;30.458;2022-08-30T13:14:23;4.57;;;2.38;;
42834;SDS011;29335;50.526;30.458;2022-08-30T13:19:57;3.95;;;2.20;;
42834;SDS011;29335;50.526;30.458;2022-08-30T13:24:57;4.38;;;2.58;;
42834;SDS011;29335;50.526;30.458;2022-08-30T13:27:23;4.10;;;2.40;;
42834;SDS011;29335;50.526;30.458;2022-08-30T13:29:50;4.22;;;2.47;;
42834;SDS011;29335;50.526;30.458;2022-08-30T13:32:15;7.95;;;2.63;;
42834;SDS011;29335;50.526;30.458;2022-08-30T13:34:41;2.92;;;1.58;;
42834;SDS011;29335;50.526;30.458;2022-08-30T13:37:09;5.25;;;2.70;;
42834;SDS011;29335;50.526;30.458;2022-08-30T13:39:48;3.80;;;2.40;;
42834;SDS011;29335;50.526;30.458;2022-08-30T13:42:14;1.80;;;1.10;;
42834;SDS011;29335;50.526;30.458;2022-08-30T13:44:39;3.30;;;2.03;;
42834;SDS011;29335;50.526;30.458;2022-08-30T13:47:05;3.58;;;1.88;;
42834;SDS011;29335;50.526;30.458;2022-08-30T13:49:34;2.80;;;1.95;;
42834;SDS011;29335;50.526;30.458;2022-08-30T13:52:02;2.85;;;2.17;;
42834;SDS011;29335;50.526;30.458;2022-08-30T13:54:29;3.83;;;2.17;;
42834;SDS011;29335;50.526;30.458;2022-08-30T13:56:55;5.10;;;2.70;;
42834;SDS011;29335;50.526;30.458;2022-08-30T13:59:21;3.63;;;2.30;;
42834;SDS011;29335;50.526;30.458;2022-08-30T14:01:48;3.67;;;2.20;;
42834;SDS011;29335;50.526;30.458;2022-08-30T14:04:15;3.72;;;2.38;;
42834;SDS011;29335;50.526;30.458;2022-08-30T14:06:41;3.58;;;2.10;;
42834;SDS011;29335;50.526;30.458;2022-08-30T14:09:06;3.70;;;2.17;;
42834;SDS011;29335;50.526;30.458;2022-08-30T14:11:34;3.42;;;1.60;;
42834;SDS011;29335;50.526;30.458;2022-08-30T14:14:00;3.88;;;1.50;;
42834;SDS011;29335;50.526;30.458;2022-08-30T14:16:26;4.07;;;2.10;;
42834;SDS011;29335;50.526;30.458;2022-08-30T14:18:53;4.68;;;2.10;;
42834;SDS011;29335;50.526;30.458;2022-08-30T14:21:19;3.75;;;2.03;;
42834;SDS011;29335;50.526;30.458;2022-08-30T14:23:45;3.55;;;1.65;;
42834;SDS011;29335;50.526;30.458;2022-08-30T14:26:22;3.35;;;1.80;;
42834;SDS011;29335;50.526;30.458;2022-08-30T14:28:50;4.35;;;2.33;;
42834;SDS011;29335;50.526;30.458;2022-08-30T14:31:16;4.15;;;2.28;;
42834;SDS011;29335;50.526;30.458;2022-08-30T14:33:42;3.50;;;2.15;;
42834;SDS011;29335;50.526;30.458;2022-08-30T14:36:08;2.45;;;1.40;;
42834;SDS011;29335;50.526;30.458;2022-08-30T14:38:34;1.58;;;1.10;;
42834;SDS011;29335;50.526;30.458;2022-08-30T14:41:00;3.00;;;1.70;;
42834;SDS011;29335;50.526;30.458;2022-08-30T14:43:28;4.68;;;2.38;;
42834;SDS011;29335;50.526;30.458;2022-08-30T14:45:53;4.82;;;2.58;;
42834;SDS011;29335;50.526;30.458;2022-08-30T14:48:22;6.57;;;2.60;;
42834;SDS011;29335;50.526;30.458;2022-08-30T14:50:47;4.72;;;2.30;;
42834;SDS011;29335;50.526;30.458;2022-08-30T14:53:13;5.53;;;2.17;;
42834;SDS011;29335;50.526;30.458;2022-08-30T14:55:39;6.97;;;2.53;;
42834;SDS011;29335;50.526;30.458;2022-08-30T14:58:04;4.53;;;2.42;;
42834;SDS011;29335;50.526;30.458;2022-08-30T15:00:31;6.68;;;2.30;;
42834;SDS011;29335;50.526;30.458;2022-08-30T15:02:57;6.32;;;2.30;;
42834;SDS011;29335;50.526;30.458;2022-08-30T15:05:22;3.83;;;2.03;;
42834;SDS011;29335;50.526;30.458;2022-08-30T15:07:48;3.35;;;1.60;;
42834;SDS011;29335;50.526;30.458;2022-08-30T15:10:16;3.75;;;1.30;;
42834;SDS011;29335;50.526;30.458;2022-08-30T15:12:47;5.43;;;2.25;;
42834;SDS011;29335;50.526;30.458;2022-08-30T15:15:14;4.53;;;2.53;;
42834;SDS011;29335;50.526;30.458;2022-08-30T15:17:43;5.47;;;2.35;;
42834;SDS011;29335;50.526;30.458;2022-08-30T15:20:10;4.18;;;2.40;;
42834;SDS011;29335;50.526;30.458;2022-08-30T15:22:36;5.13;;;2.30;;
42834;SDS011;29335;50.526;30.458;2022-08-30T15:25:03;5.95;;;2.63;;
42834;SDS011;29335;50.526;30.458;2022-08-30T15:27:29;4.13;;;2.58;;
42834;SDS011;29335;50.526;30.458;2022-08-30T15:29:54;4.55;;;2.05;;
42834;SDS011;29335;50.526;30.458;2022-08-30T15:32:20;1.95;;;1.10;;
42834;SDS011;29335;50.526;30.458;2022-08-30T15:34:46;3.35;;;1.70;;
42834;SDS011;29335;50.526;30.458;2022-08-30T15:37:11;4.97;;;2.17;;
42834;SDS011;29335;50.526;30.458;2022-08-30T15:39:40;4.32;;;1.90;;
42834;SDS011;29335;50.526;30.458;2022-08-30T15:42:05;4.28;;;1.55;;
42834;SDS011;29335;50.526;30.458;2022-08-30T15:44:31;6.30;;;2.10;;
42834;SDS011;29335;50.526;30.458;2022-08-30T15:46:57;5.68;;;2.47;;
42834;SDS011;29335;50.526;30.458;2022-08-30T15:49:23;2.22;;;1.52;;
42834;SDS011;29335;50.526;30.458;2022-08-30T15:51:49;2.88;;;1.83;;
42834;SDS011;29335;50.526;30.458;2022-08-30T15:54:17;4.32;;;2.90;;
42834;SDS011;29335;50.526;30.458;2022-08-30T15:56:44;4.63;;;3.13;;
42834;SDS011;29335;50.526;30.458;2022-08-30T15:59:11;3.78;;;1.73;;
42834;SDS011;29335;50.526;30.458;2022-08-30T16:01:39;5.15;;;3.03;;
42834;SDS011;29335;50.526;30.458;2022-08-30T16:04:05;4.47;;;2.92;;
42834;SDS011;29335;50.526;30.458;2022-08-30T16:06:32;5.65;;;2.78;;